sensor_id;sensor_type;location;lat;lon;timestamp;temperature;humidity
3550;DHT22;45572;48.804;8.330;2023-08-20T00:00:08;23.40;92.10
3550;DHT22;45572;48.804;8.330;2023-08-20T00:03:07;23.30;92.20
3550;DHT22;45572;48.804;8.330;2023-08-20T00:05:38;23.30;92.30
3550;DHT22;45572;48.804;8.330;2023-08-20T00:08:06;23.20;92.60
3550;DHT22;45572;48.804;8.330;2023-08-20T00:10:34;23.20;92.60
3550;DHT22;45572;48.804;8.330;2023-08-20T00:13:02;23.20;92.80
3550;DHT22;45572;48.804;8.330;2023-08-20T00:15:30;23.20;92.70
3550;DHT22;45572;48.804;8.330;2023-08-20T00:17:58;23.20;92.50
3550;DHT22;45572;48.804;8.330;2023-08-20T00:20:29;23.10;92.70
3550;DHT22;45572;48.804;8.330;2023-08-20T00:22:57;23.10;92.80
3550;DHT22;45572;48.804;8.330;2023-08-20T00:25:25;23.20;92.90
3550;DHT22;45572;48.804;8.330;2023-08-20T00:27:53;23.10;92.60
3550;DHT22;45572;48.804;8.330;2023-08-20T00:30:21;23.10;92.70
3550;DHT22;45572;48.804;8.330;2023-08-20T00:32:51;23.10;92.80
3550;DHT22;45572;48.804;8.330;2023-08-20T00:35:19;23.20;92.70
3550;DHT22;45572;48.804;8.330;2023-08-20T00:37:50;23.20;92.60
3550;DHT22;45572;48.804;8.330;2023-08-20T00:40:18;23.20;92.30
3550;DHT22;45572;48.804;8.330;2023-08-20T00:42:45;23.20;92.10
3550;DHT22;45572;48.804;8.330;2023-08-20T00:45:13;23.20;92.30
3550;DHT22;45572;48.804;8.330;2023-08-20T00:47:43;23.10;92.20
3550;DHT22;45572;48.804;8.330;2023-08-20T00:50:11;23.10;92.20
3550;DHT22;45572;48.804;8.330;2023-08-20T00:52:40;23.00;92.50
3550;DHT22;45572;48.804;8.330;2023-08-20T00:55:10;23.00;92.80
3550;DHT22;45572;48.804;8.330;2023-08-20T00:57:40;22.90;92.90
3550;DHT22;45572;48.804;8.330;2023-08-20T01:00:09;22.90;93.10
3550;DHT22;45572;48.804;8.330;2023-08-20T01:02:38;22.80;93.50
3550;DHT22;45572;48.804;8.330;2023-08-20T01:05:07;22.80;93.30
3550;DHT22;45572;48.804;8.330;2023-08-20T01:07:45;22.80;93.20
3550;DHT22;45572;48.804;8.330;2023-08-20T01:10:24;22.80;93.30
3550;DHT22;45572;48.804;8.330;2023-08-20T01:12:53;22.80;93.30
3550;DHT22;45572;48.804;8.330;2023-08-20T01:15:21;22.90;93.10
3550;DHT22;45572;48.804;8.330;2023-08-20T01:17:49;22.90;93.00
3550;DHT22;45572;48.804;8.330;2023-08-20T01:20:17;22.90;92.90
3550;DHT22;45572;48.804;8.330;2023-08-20T01:23:13;22.80;92.80
3550;DHT22;45572;48.804;8.330;2023-08-20T01:26:02;22.80;93.00
3550;DHT22;45572;48.804;8.330;2023-08-20T01:28:36;22.80;93.10
3550;DHT22;45572;48.804;8.330;2023-08-20T01:31:06;22.70;93.40
3550;DHT22;45572;48.804;8.330;2023-08-20T01:33:35;22.70;93.50
3550;DHT22;45572;48.804;8.330;2023-08-20T01:36:06;22.70;93.50
3550;DHT22;45572;48.804;8.330;2023-08-20T01:38:36;22.60;93.90
3550;DHT22;45572;48.804;8.330;2023-08-20T01:41:05;22.50;94.10
3550;DHT22;45572;48.804;8.330;2023-08-20T01:43:32;22.50;94.10
3550;DHT22;45572;48.804;8.330;2023-08-20T01:46:02;22.50;94.20
3550;DHT22;45572;48.804;8.330;2023-08-20T01:48:29;22.60;94.00
3550;DHT22;45572;48.804;8.330;2023-08-20T01:50:58;22.60;93.70
3550;DHT22;45572;48.804;8.330;2023-08-20T01:53:26;22.60;93.60
3550;DHT22;45572;48.804;8.330;2023-08-20T01:55:54;22.50;93.70
3550;DHT22;45572;48.804;8.330;2023-08-20T01:58:22;22.50;93.60
3550;DHT22;45572;48.804;8.330;2023-08-20T02:00:52;22.50;93.50
3550;DHT22;45572;48.804;8.330;2023-08-20T02:03:21;22.40;93.50
3550;DHT22;45572;48.804;8.330;2023-08-20T02:05:49;22.40;93.80
3550;DHT22;45572;48.804;8.330;2023-08-20T02:08:17;22.40;93.80
3550;DHT22;45572;48.804;8.330;2023-08-20T02:10:45;22.40;94.00
3550;DHT22;45572;48.804;8.330;2023-08-20T02:13:12;22.30;94.00
3550;DHT22;45572;48.804;8.330;2023-08-20T02:15:40;22.30;93.80
3550;DHT22;45572;48.804;8.330;2023-08-20T02:18:08;22.30;94.00
3550;DHT22;45572;48.804;8.330;2023-08-20T02:20:37;22.30;94.10
3550;DHT22;45572;48.804;8.330;2023-08-20T02:23:05;22.20;94.10
3550;DHT22;45572;48.804;8.330;2023-08-20T02:25:34;22.20;94.30
3550;DHT22;45572;48.804;8.330;2023-08-20T02:28:02;22.00;94.50
3550;DHT22;45572;48.804;8.330;2023-08-20T02:30:30;22.10;94.30
3550;DHT22;45572;48.804;8.330;2023-08-20T02:32:58;22.00;94.50
3550;DHT22;45572;48.804;8.330;2023-08-20T02:35:26;22.10;94.30
3550;DHT22;45572;48.804;8.330;2023-08-20T02:37:55;22.20;94.20
3550;DHT22;45572;48.804;8.330;2023-08-20T02:40:23;22.10;94.20
3550;DHT22;45572;48.804;8.330;2023-08-20T02:42:51;22.20;94.40
3550;DHT22;45572;48.804;8.330;2023-08-20T02:45:19;22.10;94.20
3550;DHT22;45572;48.804;8.330;2023-08-20T02:47:47;22.20;94.10
3550;DHT22;45572;48.804;8.330;2023-08-20T02:50:15;22.20;94.30
3550;DHT22;45572;48.804;8.330;2023-08-20T02:52:43;22.20;94.30
3550;DHT22;45572;48.804;8.330;2023-08-20T02:55:12;22.20;94.20
3550;DHT22;45572;48.804;8.330;2023-08-20T02:57:40;22.20;94.10
3550;DHT22;45572;48.804;8.330;2023-08-20T03:00:08;22.20;93.80
3550;DHT22;45572;48.804;8.330;2023-08-20T03:02:40;22.20;93.80
3550;DHT22;45572;48.804;8.330;2023-08-20T03:05:10;22.10;93.70
3550;DHT22;45572;48.804;8.330;2023-08-20T03:07:38;22.10;93.60
3550;DHT22;45572;48.804;8.330;2023-08-20T03:10:06;22.00;94.40
3550;DHT22;45572;48.804;8.330;2023-08-20T03:12:35;22.00;94.70
3550;DHT22;45572;48.804;8.330;2023-08-20T03:15:03;22.00;95.00
3550;DHT22;45572;48.804;8.330;2023-08-20T03:17:31;21.90;95.00
3550;DHT22;45572;48.804;8.330;2023-08-20T03:20:01;22.00;94.60
3550;DHT22;45572;48.804;8.330;2023-08-20T03:22:30;21.90;94.30
3550;DHT22;45572;48.804;8.330;2023-08-20T03:24:57;21.90;94.00
3550;DHT22;45572;48.804;8.330;2023-08-20T03:27:26;21.90;94.00
3550;DHT22;45572;48.804;8.330;2023-08-20T03:29:55;21.80;94.10
3550;DHT22;45572;48.804;8.330;2023-08-20T03:32:24;21.80;94.40
3550;DHT22;45572;48.804;8.330;2023-08-20T03:34:51;21.80;94.40
3550;DHT22;45572;48.804;8.330;2023-08-20T03:37:21;21.80;94.20
3550;DHT22;45572;48.804;8.330;2023-08-20T03:39:49;21.80;94.00
3550;DHT22;45572;48.804;8.330;2023-08-20T03:42:16;21.80;93.90
3550;DHT22;45572;48.804;8.330;2023-08-20T03:44:44;21.80;93.90
3550;DHT22;45572;48.804;8.330;2023-08-20T03:47:13;21.80;93.80
3550;DHT22;45572;48.804;8.330;2023-08-20T03:49:42;21.70;93.90
3550;DHT22;45572;48.804;8.330;2023-08-20T03:52:09;21.70;94.10
3550;DHT22;45572;48.804;8.330;2023-08-20T03:54:37;21.70;94.40
3550;DHT22;45572;48.804;8.330;2023-08-20T03:57:05;21.70;94.70
3550;DHT22;45572;48.804;8.330;2023-08-20T03:59:33;21.70;94.40
3550;DHT22;45572;48.804;8.330;2023-08-20T04:02:01;21.70;94.10
3550;DHT22;45572;48.804;8.330;2023-08-20T04:04:32;21.70;94.30
3550;DHT22;45572;48.804;8.330;2023-08-20T04:07:00;21.70;94.50
3550;DHT22;45572;48.804;8.330;2023-08-20T04:09:32;21.70;94.70
3550;DHT22;45572;48.804;8.330;2023-08-20T04:12:00;21.70;94.90
3550;DHT22;45572;48.804;8.330;2023-08-20T04:14:28;21.80;95.00
3550;DHT22;45572;48.804;8.330;2023-08-20T04:16:56;21.80;94.70
3550;DHT22;45572;48.804;8.330;2023-08-20T04:19:24;21.70;94.30
3550;DHT22;45572;48.804;8.330;2023-08-20T04:21:54;21.70;94.50
3550;DHT22;45572;48.804;8.330;2023-08-20T04:24:21;21.70;94.70
3550;DHT22;45572;48.804;8.330;2023-08-20T04:26:50;21.70;94.50
3550;DHT22;45572;48.804;8.330;2023-08-20T04:29:24;21.70;94.50
3550;DHT22;45572;48.804;8.330;2023-08-20T04:31:52;21.70;94.40
3550;DHT22;45572;48.804;8.330;2023-08-20T04:34:20;21.70;94.40
3550;DHT22;45572;48.804;8.330;2023-08-20T04:36:51;21.70;94.50
3550;DHT22;45572;48.804;8.330;2023-08-20T04:39:21;21.70;94.60
3550;DHT22;45572;48.804;8.330;2023-08-20T04:41:52;21.70;94.90
3550;DHT22;45572;48.804;8.330;2023-08-20T04:44:21;21.80;94.90
3550;DHT22;45572;48.804;8.330;2023-08-20T04:46:49;21.80;94.90
3550;DHT22;45572;48.804;8.330;2023-08-20T04:49:18;21.90;94.90
3550;DHT22;45572;48.804;8.330;2023-08-20T04:51:45;22.00;94.50
3550;DHT22;45572;48.804;8.330;2023-08-20T04:54:13;22.00;94.00
3550;DHT22;45572;48.804;8.330;2023-08-20T04:56:42;22.00;94.10
3550;DHT22;45572;48.804;8.330;2023-08-20T04:59:10;22.10;94.00
3550;DHT22;45572;48.804;8.330;2023-08-20T05:01:59;22.10;94.00
3550;DHT22;45572;48.804;8.330;2023-08-20T05:04:48;22.20;93.80
3550;DHT22;45572;48.804;8.330;2023-08-20T05:07:17;22.10;93.60
3550;DHT22;45572;48.804;8.330;2023-08-20T05:09:45;22.10;93.60
3550;DHT22;45572;48.804;8.330;2023-08-20T05:12:14;22.20;93.50
3550;DHT22;45572;48.804;8.330;2023-08-20T05:14:43;22.30;93.60
3550;DHT22;45572;48.804;8.330;2023-08-20T05:17:12;22.40;93.60
3550;DHT22;45572;48.804;8.330;2023-08-20T05:19:39;22.50;93.40
3550;DHT22;45572;48.804;8.330;2023-08-20T05:22:08;22.60;92.80
3550;DHT22;45572;48.804;8.330;2023-08-20T05:24:38;22.60;92.70
3550;DHT22;45572;48.804;8.330;2023-08-20T05:27:07;22.60;92.80
3550;DHT22;45572;48.804;8.330;2023-08-20T05:29:38;22.70;93.10
3550;DHT22;45572;48.804;8.330;2023-08-20T05:32:06;22.80;93.00
3550;DHT22;45572;48.804;8.330;2023-08-20T05:34:34;23.00;92.60
3550;DHT22;45572;48.804;8.330;2023-08-20T05:37:03;23.20;92.20
3550;DHT22;45572;48.804;8.330;2023-08-20T05:39:36;23.40;91.90
3550;DHT22;45572;48.804;8.330;2023-08-20T05:42:04;23.60;91.70
3550;DHT22;45572;48.804;8.330;2023-08-20T05:44:33;23.80;91.30
3550;DHT22;45572;48.804;8.330;2023-08-20T05:47:03;24.00;90.90
3550;DHT22;45572;48.804;8.330;2023-08-20T05:49:32;24.10;89.80
3550;DHT22;45572;48.804;8.330;2023-08-20T05:52:00;24.30;89.60
3550;DHT22;45572;48.804;8.330;2023-08-20T05:54:29;24.50;89.40
3550;DHT22;45572;48.804;8.330;2023-08-20T05:56:57;24.60;89.10
3550;DHT22;45572;48.804;8.330;2023-08-20T05:59:27;24.70;88.60
3550;DHT22;45572;48.804;8.330;2023-08-20T06:01:55;24.80;88.30
3550;DHT22;45572;48.804;8.330;2023-08-20T06:04:24;24.80;88.30
3550;DHT22;45572;48.804;8.330;2023-08-20T06:06:51;24.80;88.40
3550;DHT22;45572;48.804;8.330;2023-08-20T06:09:19;24.80;88.50
3550;DHT22;45572;48.804;8.330;2023-08-20T06:11:47;24.80;88.70
3550;DHT22;45572;48.804;8.330;2023-08-20T06:14:15;24.90;88.50
3550;DHT22;45572;48.804;8.330;2023-08-20T06:16:43;25.10;88.30
3550;DHT22;45572;48.804;8.330;2023-08-20T06:19:11;25.40;88.20
3550;DHT22;45572;48.804;8.330;2023-08-20T06:21:40;25.60;87.60
3550;DHT22;45572;48.804;8.330;2023-08-20T06:24:08;25.70;86.70
3550;DHT22;45572;48.804;8.330;2023-08-20T06:26:36;25.80;86.60
3550;DHT22;45572;48.804;8.330;2023-08-20T06:29:04;25.90;86.60
3550;DHT22;45572;48.804;8.330;2023-08-20T06:31:33;26.00;86.10
3550;DHT22;45572;48.804;8.330;2023-08-20T06:34:01;26.20;85.90
3550;DHT22;45572;48.804;8.330;2023-08-20T06:36:29;26.50;85.70
3550;DHT22;45572;48.804;8.330;2023-08-20T06:38:58;27.10;83.60
3550;DHT22;45572;48.804;8.330;2023-08-20T06:41:26;28.20;80.90
3550;DHT22;45572;48.804;8.330;2023-08-20T06:43:54;29.40;77.00
3550;DHT22;45572;48.804;8.330;2023-08-20T06:46:21;30.40;73.90
3550;DHT22;45572;48.804;8.330;2023-08-20T06:48:49;31.20;71.80
3550;DHT22;45572;48.804;8.330;2023-08-20T06:51:20;31.70;70.20
3550;DHT22;45572;48.804;8.330;2023-08-20T06:53:48;32.40;67.00
3550;DHT22;45572;48.804;8.330;2023-08-20T06:56:18;32.80;66.90
3550;DHT22;45572;48.804;8.330;2023-08-20T06:58:46;33.80;65.00
3550;DHT22;45572;48.804;8.330;2023-08-20T07:01:14;34.70;64.00
3550;DHT22;45572;48.804;8.330;2023-08-20T07:03:43;35.50;60.70
3550;DHT22;45572;48.804;8.330;2023-08-20T07:06:11;35.00;60.90
3550;DHT22;45572;48.804;8.330;2023-08-20T07:08:42;35.30;59.10
3550;DHT22;45572;48.804;8.330;2023-08-20T07:11:11;35.20;59.70
3550;DHT22;45572;48.804;8.330;2023-08-20T07:13:40;35.60;58.90
3550;DHT22;45572;48.804;8.330;2023-08-20T07:16:07;34.60;59.80
3550;DHT22;45572;48.804;8.330;2023-08-20T07:18:36;34.00;61.30
3550;DHT22;45572;48.804;8.330;2023-08-20T07:21:04;34.30;60.40
3550;DHT22;45572;48.804;8.330;2023-08-20T07:23:34;35.00;59.50
3550;DHT22;45572;48.804;8.330;2023-08-20T07:26:04;35.30;57.60
3550;DHT22;45572;48.804;8.330;2023-08-20T07:28:33;35.20;58.10
3550;DHT22;45572;48.804;8.330;2023-08-20T07:31:16;34.90;59.80
3550;DHT22;45572;48.804;8.330;2023-08-20T07:33:46;34.40;61.20
3550;DHT22;45572;48.804;8.330;2023-08-20T07:36:14;34.20;61.40
3550;DHT22;45572;48.804;8.330;2023-08-20T07:38:43;34.60;60.90
3550;DHT22;45572;48.804;8.330;2023-08-20T07:41:11;35.00;59.10
3550;DHT22;45572;48.804;8.330;2023-08-20T07:43:39;35.30;59.30
3550;DHT22;45572;48.804;8.330;2023-08-20T07:46:08;36.20;58.10
3550;DHT22;45572;48.804;8.330;2023-08-20T07:48:37;37.30;55.80
3550;DHT22;45572;48.804;8.330;2023-08-20T07:51:05;37.00;54.70
3550;DHT22;45572;48.804;8.330;2023-08-20T07:53:34;36.10;56.20
3550;DHT22;45572;48.804;8.330;2023-08-20T07:56:02;37.00;56.40
3550;DHT22;45572;48.804;8.330;2023-08-20T07:58:30;37.90;53.90
3550;DHT22;45572;48.804;8.330;2023-08-20T08:00:58;38.40;52.40
3550;DHT22;45572;48.804;8.330;2023-08-20T08:03:26;38.30;54.00
3550;DHT22;45572;48.804;8.330;2023-08-20T08:05:56;39.10;53.20
3550;DHT22;45572;48.804;8.330;2023-08-20T08:08:24;40.10;52.80
3550;DHT22;45572;48.804;8.330;2023-08-20T08:10:51;40.90;52.00
3550;DHT22;45572;48.804;8.330;2023-08-20T08:13:20;41.60;49.00
3550;DHT22;45572;48.804;8.330;2023-08-20T08:15:48;42.20;46.80
3550;DHT22;45572;48.804;8.330;2023-08-20T08:18:16;42.80;47.80
3550;DHT22;45572;48.804;8.330;2023-08-20T08:20:44;43.40;46.70
3550;DHT22;45572;48.804;8.330;2023-08-20T08:23:13;43.90;45.90
3550;DHT22;45572;48.804;8.330;2023-08-20T08:25:41;44.20;45.90
3550;DHT22;45572;48.804;8.330;2023-08-20T08:28:09;44.40;46.10
3550;DHT22;45572;48.804;8.330;2023-08-20T08:30:38;44.20;45.00
3550;DHT22;45572;48.804;8.330;2023-08-20T08:33:06;44.10;45.80
3550;DHT22;45572;48.804;8.330;2023-08-20T08:35:34;44.50;46.50
3550;DHT22;45572;48.804;8.330;2023-08-20T08:38:02;44.10;46.50
3550;DHT22;45572;48.804;8.330;2023-08-20T08:40:33;44.50;46.90
3550;DHT22;45572;48.804;8.330;2023-08-20T08:43:02;44.90;46.30
3550;DHT22;45572;48.804;8.330;2023-08-20T08:45:30;45.10;45.60
3550;DHT22;45572;48.804;8.330;2023-08-20T08:48:02;45.00;45.60
3550;DHT22;45572;48.804;8.330;2023-08-20T08:50:31;45.10;46.20
3550;DHT22;45572;48.804;8.330;2023-08-20T08:52:59;45.30;46.40
3550;DHT22;45572;48.804;8.330;2023-08-20T08:55:27;45.60;44.90
3550;DHT22;45572;48.804;8.330;2023-08-20T08:57:56;45.90;45.20
3550;DHT22;45572;48.804;8.330;2023-08-20T09:00:24;45.60;44.90
3550;DHT22;45572;48.804;8.330;2023-08-20T09:02:51;45.70;45.30
3550;DHT22;45572;48.804;8.330;2023-08-20T09:05:19;45.70;45.30
3550;DHT22;45572;48.804;8.330;2023-08-20T09:07:55;45.90;46.20
3550;DHT22;45572;48.804;8.330;2023-08-20T09:10:25;45.70;44.80
3550;DHT22;45572;48.804;8.330;2023-08-20T09:12:56;45.80;45.30
3550;DHT22;45572;48.804;8.330;2023-08-20T09:15:31;45.90;45.50
3550;DHT22;45572;48.804;8.330;2023-08-20T09:18:02;46.40;44.80
3550;DHT22;45572;48.804;8.330;2023-08-20T09:20:35;46.00;45.50
3550;DHT22;45572;48.804;8.330;2023-08-20T09:23:03;46.00;45.20
3550;DHT22;45572;48.804;8.330;2023-08-20T09:25:33;45.00;46.20
3550;DHT22;45572;48.804;8.330;2023-08-20T09:28:03;45.00;46.30
3550;DHT22;45572;48.804;8.330;2023-08-20T09:30:32;45.40;46.80
3550;DHT22;45572;48.804;8.330;2023-08-20T09:33:04;45.70;45.80
3550;DHT22;45572;48.804;8.330;2023-08-20T09:35:33;46.40;45.20
3550;DHT22;45572;48.804;8.330;2023-08-20T09:38:02;46.40;44.60
3550;DHT22;45572;48.804;8.330;2023-08-20T09:40:31;46.70;44.30
3550;DHT22;45572;48.804;8.330;2023-08-20T09:43:00;46.40;44.70
3550;DHT22;45572;48.804;8.330;2023-08-20T09:45:30;45.30;44.90
3550;DHT22;45572;48.804;8.330;2023-08-20T09:47:59;45.10;46.60
3550;DHT22;45572;48.804;8.330;2023-08-20T09:50:28;45.30;46.10
3550;DHT22;45572;48.804;8.330;2023-08-20T09:53:06;45.90;46.50
3550;DHT22;45572;48.804;8.330;2023-08-20T09:55:39;46.40;44.90
3550;DHT22;45572;48.804;8.330;2023-08-20T09:58:09;46.80;44.40
3550;DHT22;45572;48.804;8.330;2023-08-20T10:00:39;46.80;45.20
3550;DHT22;45572;48.804;8.330;2023-08-20T10:03:07;46.90;44.70
3550;DHT22;45572;48.804;8.330;2023-08-20T10:05:34;47.50;43.70
3550;DHT22;45572;48.804;8.330;2023-08-20T10:08:07;47.60;42.70
3550;DHT22;45572;48.804;8.330;2023-08-20T10:10:36;48.00;43.70
3550;DHT22;45572;48.804;8.330;2023-08-20T10:13:04;48.40;42.80
3550;DHT22;45572;48.804;8.330;2023-08-20T10:15:32;48.40;41.60
3550;DHT22;45572;48.804;8.330;2023-08-20T10:18:08;47.80;42.50
3550;DHT22;45572;48.804;8.330;2023-08-20T10:20:38;47.40;43.90
3550;DHT22;45572;48.804;8.330;2023-08-20T10:23:06;46.20;43.60
3550;DHT22;45572;48.804;8.330;2023-08-20T10:25:41;45.20;46.00
3550;DHT22;45572;48.804;8.330;2023-08-20T10:28:14;45.70;47.30
3550;DHT22;45572;48.804;8.330;2023-08-20T10:31:04;45.70;44.40
3550;DHT22;45572;48.804;8.330;2023-08-20T10:33:37;46.50;43.80
3550;DHT22;45572;48.804;8.330;2023-08-20T10:36:08;46.60;42.80
3550;DHT22;45572;48.804;8.330;2023-08-20T10:38:37;47.30;42.20
3550;DHT22;45572;48.804;8.330;2023-08-20T10:41:06;47.90;42.70
3550;DHT22;45572;48.804;8.330;2023-08-20T10:43:37;48.30;42.90
3550;DHT22;45572;48.804;8.330;2023-08-20T10:46:07;48.60;41.20
3550;DHT22;45572;48.804;8.330;2023-08-20T10:48:39;47.80;43.20
3550;DHT22;45572;48.804;8.330;2023-08-20T10:51:12;47.50;41.50
3550;DHT22;45572;48.804;8.330;2023-08-20T10:53:42;47.80;41.30
3550;DHT22;45572;48.804;8.330;2023-08-20T10:56:11;48.00;40.00
3550;DHT22;45572;48.804;8.330;2023-08-20T10:58:42;47.60;42.10
3550;DHT22;45572;48.804;8.330;2023-08-20T11:01:25;47.60;40.90
3550;DHT22;45572;48.804;8.330;2023-08-20T11:03:55;48.00;41.90
3550;DHT22;45572;48.804;8.330;2023-08-20T11:06:24;48.20;40.30
3550;DHT22;45572;48.804;8.330;2023-08-20T11:08:53;47.50;40.50
3550;DHT22;45572;48.804;8.330;2023-08-20T11:11:22;47.10;40.80
3550;DHT22;45572;48.804;8.330;2023-08-20T11:13:50;45.10;43.50
3550;DHT22;45572;48.804;8.330;2023-08-20T11:16:19;45.30;43.70
3550;DHT22;45572;48.804;8.330;2023-08-20T11:18:47;46.00;43.20
3550;DHT22;45572;48.804;8.330;2023-08-20T11:21:16;46.60;43.40
3550;DHT22;45572;48.804;8.330;2023-08-20T11:23:46;47.00;42.30
3550;DHT22;45572;48.804;8.330;2023-08-20T11:26:17;47.30;41.90
3550;DHT22;45572;48.804;8.330;2023-08-20T11:28:46;47.20;41.70
3550;DHT22;45572;48.804;8.330;2023-08-20T11:31:14;47.30;41.50
3550;DHT22;45572;48.804;8.330;2023-08-20T11:33:42;47.50;41.80
3550;DHT22;45572;48.804;8.330;2023-08-20T11:36:10;46.90;41.30
3550;DHT22;45572;48.804;8.330;2023-08-20T11:38:39;47.10;42.30
3550;DHT22;45572;48.804;8.330;2023-08-20T11:41:07;47.50;42.30
3550;DHT22;45572;48.804;8.330;2023-08-20T11:43:34;47.50;41.50
3550;DHT22;45572;48.804;8.330;2023-08-20T11:46:02;48.10;40.40
3550;DHT22;45572;48.804;8.330;2023-08-20T11:48:30;48.10;40.30
3550;DHT22;45572;48.804;8.330;2023-08-20T11:50:58;48.20;42.10
3550;DHT22;45572;48.804;8.330;2023-08-20T11:53:28;48.20;40.70
3550;DHT22;45572;48.804;8.330;2023-08-20T11:55:57;47.30;40.40
3550;DHT22;45572;48.804;8.330;2023-08-20T11:58:28;47.10;41.80
3550;DHT22;45572;48.804;8.330;2023-08-20T12:00:56;47.30;41.60
3550;DHT22;45572;48.804;8.330;2023-08-20T12:03:29;47.00;41.30
3550;DHT22;45572;48.804;8.330;2023-08-20T12:05:57;46.60;42.20
3550;DHT22;45572;48.804;8.330;2023-08-20T12:08:25;46.50;42.00
3550;DHT22;45572;48.804;8.330;2023-08-20T12:10:59;46.80;42.10
3550;DHT22;45572;48.804;8.330;2023-08-20T12:13:30;46.50;42.20
3550;DHT22;45572;48.804;8.330;2023-08-20T12:15:58;46.80;42.10
3550;DHT22;45572;48.804;8.330;2023-08-20T12:18:26;46.80;42.00
3550;DHT22;45572;48.804;8.330;2023-08-20T12:20:54;46.50;42.20
3550;DHT22;45572;48.804;8.330;2023-08-20T12:23:21;45.50;43.80
3550;DHT22;45572;48.804;8.330;2023-08-20T12:25:50;45.50;43.40
3550;DHT22;45572;48.804;8.330;2023-08-20T12:28:20;45.20;43.90
3550;DHT22;45572;48.804;8.330;2023-08-20T12:30:49;44.60;44.80
3550;DHT22;45572;48.804;8.330;2023-08-20T12:33:18;43.40;46.80
3550;DHT22;45572;48.804;8.330;2023-08-20T12:35:47;42.40;47.30
3550;DHT22;45572;48.804;8.330;2023-08-20T12:38:17;41.30;49.70
3550;DHT22;45572;48.804;8.330;2023-08-20T12:40:44;40.40;51.50
3550;DHT22;45572;48.804;8.330;2023-08-20T12:43:14;39.70;53.60
3550;DHT22;45572;48.804;8.330;2023-08-20T12:45:43;39.00;54.20
3550;DHT22;45572;48.804;8.330;2023-08-20T12:48:12;38.40;55.60
3550;DHT22;45572;48.804;8.330;2023-08-20T12:50:41;38.00;55.70
3550;DHT22;45572;48.804;8.330;2023-08-20T12:53:09;37.50;56.30
3550;DHT22;45572;48.804;8.330;2023-08-20T12:55:37;36.90;58.10
3550;DHT22;45572;48.804;8.330;2023-08-20T12:58:05;36.50;60.20
3550;DHT22;45572;48.804;8.330;2023-08-20T13:00:33;36.50;60.00
3550;DHT22;45572;48.804;8.330;2023-08-20T13:03:03;36.30;58.80
3550;DHT22;45572;48.804;8.330;2023-08-20T13:05:31;36.20;59.80
3550;DHT22;45572;48.804;8.330;2023-08-20T13:08:01;36.10;60.60
3550;DHT22;45572;48.804;8.330;2023-08-20T13:10:29;36.00;60.20
3550;DHT22;45572;48.804;8.330;2023-08-20T13:13:00;35.90;61.70
3550;DHT22;45572;48.804;8.330;2023-08-20T13:15:29;35.90;62.80
3550;DHT22;45572;48.804;8.330;2023-08-20T13:17:59;35.70;63.40
3550;DHT22;45572;48.804;8.330;2023-08-20T13:20:29;35.60;63.30
3550;DHT22;45572;48.804;8.330;2023-08-20T13:22:57;35.70;62.00
3550;DHT22;45572;48.804;8.330;2023-08-20T13:25:25;35.70;60.60
3550;DHT22;45572;48.804;8.330;2023-08-20T13:27:53;35.70;61.50
3550;DHT22;45572;48.804;8.330;2023-08-20T13:30:21;35.60;61.30
3550;DHT22;45572;48.804;8.330;2023-08-20T13:32:49;35.40;61.20
3550;DHT22;45572;48.804;8.330;2023-08-20T13:35:18;35.30;61.90
3550;DHT22;45572;48.804;8.330;2023-08-20T13:37:47;35.40;62.00
3550;DHT22;45572;48.804;8.330;2023-08-20T13:40:15;35.40;61.20
3550;DHT22;45572;48.804;8.330;2023-08-20T13:42:43;35.30;61.30
3550;DHT22;45572;48.804;8.330;2023-08-20T13:45:10;35.30;62.00
3550;DHT22;45572;48.804;8.330;2023-08-20T13:47:38;35.10;61.30
3550;DHT22;45572;48.804;8.330;2023-08-20T13:50:07;35.10;62.30
3550;DHT22;45572;48.804;8.330;2023-08-20T13:52:34;35.10;61.70
3550;DHT22;45572;48.804;8.330;2023-08-20T13:55:04;35.20;60.60
3550;DHT22;45572;48.804;8.330;2023-08-20T13:57:32;35.20;61.60
3550;DHT22;45572;48.804;8.330;2023-08-20T14:00:01;35.10;60.80
3550;DHT22;45572;48.804;8.330;2023-08-20T14:02:35;35.00;60.70
3550;DHT22;45572;48.804;8.330;2023-08-20T14:05:05;35.00;60.90
3550;DHT22;45572;48.804;8.330;2023-08-20T14:07:33;35.00;60.20
3550;DHT22;45572;48.804;8.330;2023-08-20T14:10:01;35.10;61.70
3550;DHT22;45572;48.804;8.330;2023-08-20T14:12:31;35.00;59.30
3550;DHT22;45572;48.804;8.330;2023-08-20T14:14:59;34.90;60.20
3550;DHT22;45572;48.804;8.330;2023-08-20T14:17:27;34.90;59.90
3550;DHT22;45572;48.804;8.330;2023-08-20T14:19:55;34.80;59.90
3550;DHT22;45572;48.804;8.330;2023-08-20T14:22:23;34.80;60.90
3550;DHT22;45572;48.804;8.330;2023-08-20T14:24:51;34.80;61.90
3550;DHT22;45572;48.804;8.330;2023-08-20T14:27:19;34.80;60.00
3550;DHT22;45572;48.804;8.330;2023-08-20T14:29:50;34.70;60.80
3550;DHT22;45572;48.804;8.330;2023-08-20T14:32:18;34.50;60.50
3550;DHT22;45572;48.804;8.330;2023-08-20T14:34:46;34.60;61.00
3550;DHT22;45572;48.804;8.330;2023-08-20T14:37:13;34.60;60.50
3550;DHT22;45572;48.804;8.330;2023-08-20T14:39:41;34.70;59.80
3550;DHT22;45572;48.804;8.330;2023-08-20T14:42:09;34.70;59.50
3550;DHT22;45572;48.804;8.330;2023-08-20T14:44:38;34.50;59.70
3550;DHT22;45572;48.804;8.330;2023-08-20T14:47:09;34.40;58.50
3550;DHT22;45572;48.804;8.330;2023-08-20T14:49:38;34.50;57.60
3550;DHT22;45572;48.804;8.330;2023-08-20T14:52:06;34.40;58.90
3550;DHT22;45572;48.804;8.330;2023-08-20T14:54:45;34.30;59.30
3550;DHT22;45572;48.804;8.330;2023-08-20T14:57:15;34.40;59.00
3550;DHT22;45572;48.804;8.330;2023-08-20T14:59:44;34.40;60.40
3550;DHT22;45572;48.804;8.330;2023-08-20T15:02:13;34.20;58.60
3550;DHT22;45572;48.804;8.330;2023-08-20T15:04:42;34.10;59.60
3550;DHT22;45572;48.804;8.330;2023-08-20T15:07:10;34.00;60.60
3550;DHT22;45572;48.804;8.330;2023-08-20T15:09:38;34.10;60.50
3550;DHT22;45572;48.804;8.330;2023-08-20T15:12:06;34.20;60.70
3550;DHT22;45572;48.804;8.330;2023-08-20T15:14:34;34.10;60.30
3550;DHT22;45572;48.804;8.330;2023-08-20T15:17:02;34.10;62.20
3550;DHT22;45572;48.804;8.330;2023-08-20T15:19:33;34.00;61.40
3550;DHT22;45572;48.804;8.330;2023-08-20T15:22:01;34.00;60.50
3550;DHT22;45572;48.804;8.330;2023-08-20T15:24:32;34.00;61.00
3550;DHT22;45572;48.804;8.330;2023-08-20T15:27:01;34.00;60.80
3550;DHT22;45572;48.804;8.330;2023-08-20T15:29:32;34.10;61.10
3550;DHT22;45572;48.804;8.330;2023-08-20T15:31:59;34.00;62.00
3550;DHT22;45572;48.804;8.330;2023-08-20T15:34:27;33.90;62.10
3550;DHT22;45572;48.804;8.330;2023-08-20T15:36:58;33.90;62.50
3550;DHT22;45572;48.804;8.330;2023-08-20T15:39:27;33.90;63.50
3550;DHT22;45572;48.804;8.330;2023-08-20T15:41:55;33.80;63.10
3550;DHT22;45572;48.804;8.330;2023-08-20T15:44:22;33.80;62.20
3550;DHT22;45572;48.804;8.330;2023-08-20T15:46:50;33.70;62.40
3550;DHT22;45572;48.804;8.330;2023-08-20T15:49:18;33.60;63.00
3550;DHT22;45572;48.804;8.330;2023-08-20T15:51:46;33.60;62.70
3550;DHT22;45572;48.804;8.330;2023-08-20T15:54:18;33.70;62.80
3550;DHT22;45572;48.804;8.330;2023-08-20T15:56:47;33.60;63.20